Time;durP1;ratioP1;P1;durP2;ratioP2;P2;SDS_P1;SDS_P2;PMS_P1;PMS_P2;Temp;Humidity;BMP_temperature;BMP_pressure;BME280_temperature;BME280_humidity;BME280_pressure;Samples;Min_cycle;Max_cycle;Signal;HPM_P1;HPM_P2
2022/07/11 00:00:15;;;;;;;3.90;3.60;;;;;;;;;;4941073;29;20567;-88
2022/07/11 00:02:41;;;;;;;3.93;3.53;;;;;;;;;;4966088;28;20482;-90
2022/07/11 00:05:09;;;;;;;3.57;3.20;;;;;;;;;;4954593;29;20481;-90
2022/07/11 00:07:35;;;;;;;3.37;3.10;;;;;;;;;;4938973;29;20770;-89
2022/07/11 00:10:10;;;;;;;3.70;3.40;;;;;;;;;;4970576;28;20436;-89
2022/07/11 00:12:35;;;;;;;3.20;3.10;;;;;;;;;;4956271;28;20425;-88
2022/07/11 00:15:01;;;;;;;3.97;3.77;;;;;;;;;;4942938;28;20801;-89
2022/07/11 00:17:27;;;;;;;3.87;3.53;;;;;;;;;;4946700;29;20501;-88
2022/07/11 00:19:54;;;;;;;3.80;3.70;;;;;;;;;;4942368;29;20458;-88
2022/07/11 00:22:20;;;;;;;6.27;3.60;;;;;;;;;;4952089;29;20434;-89
2022/07/11 00:24:46;;;;;;;3.33;3.23;;;;;;;;;;4941707;29;20486;-89
2022/07/11 00:27:13;;;;;;;3.40;3.30;;;;;;;;;;4934567;29;20415;-90
2022/07/11 00:29:39;;;;;;;3.30;3.20;;;;;;;;;;4950275;28;20978;-89
2022/07/11 00:32:06;;;;;;;3.80;3.60;;;;;;;;;;4932137;29;20844;-90
2022/07/11 00:34:31;;;;;;;4.50;4.20;;;;;;;;;;4941275;29;20442;-90
2022/07/11 00:36:57;;;;;;;3.37;3.17;;;;;;;;;;4934678;28;20768;-89
2022/07/11 00:39:23;;;;;;;6.27;4.40;;;;;;;;;;4935216;29;20883;-89
2022/07/11 00:41:49;;;;;;;3.47;3.20;;;;;;;;;;4933109;29;20514;-88
2022/07/11 00:44:15;;;;;;;3.80;3.50;;;;;;;;;;4940047;29;20466;-88
2022/07/11 00:46:41;;;;;;;6.20;3.63;;;;;;;;;;4931643;29;20541;-89
2022/07/11 00:49:07;;;;;;;4.40;3.80;;;;;;;;;;4938870;29;20447;-89
2022/07/11 00:51:33;;;;;;;3.60;3.30;;;;;;;;;;4925718;29;20925;-89
2022/07/11 00:54:00;;;;;;;4.70;4.47;;;;;;;;;;4946538;28;20488;-90
2022/07/11 00:56:27;;;;;;;3.70;3.50;;;;;;;;;;4938065;29;20454;-89
2022/07/11 00:58:56;;;;;;;3.90;3.57;;;;;;;;;;4949584;29;20422;-89
2022/07/11 01:01:22;;;;;;;4.37;4.07;;;;;;;;;;4996764;23;20534;-93
2022/07/11 01:03:48;;;;;;;3.90;3.20;;;;;;;;;;4981006;28;20437;-94
2022/07/11 01:06:15;;;;;;;4.23;4.10;;;;;;;;;;4967854;28;20477;-93
2022/07/11 01:08:41;;;;;;;3.50;3.30;;;;;;;;;;4979399;28;20428;-93
2022/07/11 01:11:16;;;;;;;8.73;4.20;;;;;;;;;;4966496;28;20484;-93
2022/07/11 01:13:42;;;;;;;6.83;3.57;;;;;;;;;;4961209;29;20414;-93
2022/07/11 01:16:08;;;;;;;3.53;3.37;;;;;;;;;;4966564;28;20501;-92
2022/07/11 01:18:34;;;;;;;3.83;3.63;;;;;;;;;;4984359;28;20417;-93
2022/07/11 01:21:01;;;;;;;6.67;3.60;;;;;;;;;;4981174;28;20458;-94
2022/07/11 01:23:27;;;;;;;5.27;3.50;;;;;;;;;;4981771;28;20821;-92
2022/07/11 01:25:53;;;;;;;3.77;3.47;;;;;;;;;;4987662;28;20477;-92
2022/07/11 01:28:19;;;;;;;4.83;3.67;;;;;;;;;;4987110;28;20428;-92
2022/07/11 01:30:45;;;;;;;5.03;3.17;;;;;;;;;;4982139;28;20429;-92
2022/07/11 01:33:11;;;;;;;3.67;3.47;;;;;;;;;;4964955;28;20476;-86
2022/07/11 01:35:37;;;;;;;3.77;3.57;;;;;;;;;;4963912;28;20533;-86
2022/07/11 01:38:03;;;;;;;3.57;3.27;;;;;;;;;;4967208;28;20430;-86
2022/07/11 01:40:29;;;;;;;3.60;3.40;;;;;;;;;;4977040;28;20468;-87
2022/07/11 01:42:55;;;;;;;4.13;2.70;;;;;;;;;;4964227;28;20430;-86
2022/07/11 01:45:21;;;;;;;2.77;2.67;;;;;;;;;;4951306;28;20461;-86
2022/07/11 01:47:47;;;;;;;4.30;3.00;;;;;;;;;;4972727;28;20530;-87
2022/07/11 01:50:13;;;;;;;3.33;3.23;;;;;;;;;;4961465;28;20868;-86
2022/07/11 01:52:40;;;;;;;3.37;3.07;;;;;;;;;;4937112;29;20469;-87
2022/07/11 01:55:06;;;;;;;2.93;2.83;;;;;;;;;;4958617;28;20478;-86
2022/07/11 01:57:32;;;;;;;3.30;3.00;;;;;;;;;;4936712;29;20521;-86
2022/07/11 01:59:58;;;;;;;4.00;3.80;;;;;;;;;;4951589;28;21094;-86
2022/07/11 02:02:24;;;;;;;3.47;3.30;;;;;;;;;;4952884;29;20785;-86
2022/07/11 02:04:50;;;;;;;4.60;3.30;;;;;;;;;;4952832;28;20855;-86
2022/07/11 02:08:11;;;;;;;3.20;3.10;;;;;;;;;;4941552;29;20425;-86
2022/07/11 02:10:02;;;;;;;5.03;3.10;;;;;;;;;;4945193;28;20442;-86
2022/07/11 02:12:28;;;;;;;3.30;3.17;;;;;;;;;;4938013;28;20768;-86
2022/07/11 02:14:53;;;;;;;5.90;4.67;;;;;;;;;;4959908;28;20551;-86
2022/07/11 02:17:19;;;;;;;3.87;3.57;;;;;;;;;;4940323;28;20427;-88
2022/07/11 02:19:45;;;;;;;3.70;3.60;;;;;;;;;;4952701;29;20415;-86
2022/07/11 02:22:15;;;;;;;3.40;3.20;;;;;;;;;;4952393;28;20420;-86
2022/07/11 02:24:40;;;;;;;3.20;3.10;;;;;;;;;;4949629;28;20487;-89
2022/07/11 02:27:06;;;;;;;3.20;3.10;;;;;;;;;;4945755;28;20427;-87
2022/07/11 02:29:32;;;;;;;4.07;3.47;;;;;;;;;;4965711;28;20428;-86
2022/07/11 02:31:59;;;;;;;3.33;3.33;;;;;;;;;;4939677;29;20861;-87
2022/07/11 02:34:25;;;;;;;4.50;3.23;;;;;;;;;;4952418;28;20524;-87
2022/07/11 02:36:51;;;;;;;3.30;3.20;;;;;;;;;;4941970;28;20410;-87
2022/07/11 02:39:17;;;;;;;3.20;3.10;;;;;;;;;;4938750;28;20840;-87
2022/07/11 02:41:43;;;;;;;3.53;3.23;;;;;;;;;;4951140;28;20473;-87
2022/07/11 02:44:09;;;;;;;3.70;3.40;;;;;;;;;;4950319;28;20434;-88
2022/07/11 02:46:35;;;;;;;3.67;3.37;;;;;;;;;;4953285;28;20431;-87
2022/07/11 02:49:01;;;;;;;7.83;3.30;;;;;;;;;;4942458;28;20445;-88
2022/07/11 02:51:27;;;;;;;3.77;3.50;;;;;;;;;;4941463;28;20468;-87
2022/07/11 02:53:53;;;;;;;3.40;3.33;;;;;;;;;;4953907;28;20820;-87
2022/07/11 02:56:19;;;;;;;3.60;3.30;;;;;;;;;;4954286;28;20513;-87
2022/07/11 02:58:45;;;;;;;3.23;3.13;;;;;;;;;;4962297;28;20447;-87
2022/07/11 03:01:11;;;;;;;3.20;2.90;;;;;;;;;;4952372;28;20493;-86
2022/07/11 03:03:37;;;;;;;3.67;3.43;;;;;;;;;;4945369;29;20435;-87
2022/07/11 03:06:03;;;;;;;4.43;3.10;;;;;;;;;;4953906;28;21035;-87
2022/07/11 03:08:29;;;;;;;3.10;3.00;;;;;;;;;;4944518;29;20438;-88
2022/07/11 03:10:55;;;;;;;3.50;3.20;;;;;;;;;;4953626;28;20434;-87
2022/07/11 03:13:21;;;;;;;3.43;3.33;;;;;;;;;;4961261;28;20427;-87
2022/07/11 03:15:47;;;;;;;3.67;3.47;;;;;;;;;;4935600;29;20497;-87
2022/07/11 03:18:13;;;;;;;4.57;3.77;;;;;;;;;;4943469;28;20454;-88
2022/07/11 03:20:39;;;;;;;4.03;3.73;;;;;;;;;;4950002;28;20433;-87
2022/07/11 03:23:05;;;;;;;3.33;3.23;;;;;;;;;;4938497;28;20433;-87
2022/07/11 03:25:31;;;;;;;3.37;3.10;;;;;;;;;;4934133;28;20446;-86
2022/07/11 03:27:57;;;;;;;3.27;2.97;;;;;;;;;;4963388;28;20795;-87
2022/07/11 03:30:23;;;;;;;3.17;2.90;;;;;;;;;;4949741;28;20433;-87
2022/07/11 03:32:49;;;;;;;3.63;3.43;;;;;;;;;;4941551;29;20453;-87
2022/07/11 03:38:00;;;;;;;2.87;2.67;;;;;;;;;;4951779;29;20421;-88
2022/07/11 03:40:26;;;;;;;3.77;3.23;;;;;;;;;;4953958;28;20430;-87
2022/07/11 03:42:52;;;;;;;3.00;2.90;;;;;;;;;;4935544;28;20496;-87
2022/07/11 03:45:18;;;;;;;3.00;2.77;;;;;;;;;;4940577;28;20514;-87
2022/07/11 03:47:44;;;;;;;4.13;3.20;;;;;;;;;;4952870;29;20418;-87
2022/07/11 03:50:10;;;;;;;2.80;2.47;;;;;;;;;;4944625;28;20441;-87
2022/07/11 03:52:36;;;;;;;4.53;3.00;;;;;;;;;;4938223;28;20932;-87
2022/07/11 03:55:02;;;;;;;2.60;2.40;;;;;;;;;;4954077;28;20473;-87
2022/07/11 03:57:28;;;;;;;2.30;2.07;;;;;;;;;;4934721;28;20484;-86
2022/07/11 03:59:54;;;;;;;5.03;3.30;;;;;;;;;;4949576;28;20454;-88
2022/07/11 04:02:20;;;;;;;2.20;2.10;;;;;;;;;;4950911;29;20441;-87
2022/07/11 04:04:45;;;;;;;1.63;1.63;;;;;;;;;;4947682;28;20518;-88
2022/07/11 04:07:11;;;;;;;1.70;1.70;;;;;;;;;;4949847;29;20414;-87
2022/07/11 04:09:37;;;;;;;2.43;1.97;;;;;;;;;;4260215;28;10000616;-86
2022/07/11 04:12:04;;;;;;;4.10;1.93;;;;;;;;;;4946860;28;20186;-87
2022/07/11 04:14:30;;;;;;;2.20;2.03;;;;;;;;;;4941217;28;20485;-87
2022/07/11 04:16:55;;;;;;;1.60;1.60;;;;;;;;;;4948540;28;20454;-87
2022/07/11 04:19:23;;;;;;;1.60;1.53;;;;;;;;;;4955266;28;20453;-86
2022/07/11 04:21:49;;;;;;;1.30;1.30;;;;;;;;;;4946901;28;20954;-87
2022/07/11 04:24:15;;;;;;;1.90;1.80;;;;;;;;;;4937782;28;20472;-87
2022/07/11 04:26:42;;;;;;;1.97;1.60;;;;;;;;;;4951229;28;20565;-88
2022/07/11 04:29:08;;;;;;;1.40;1.40;;;;;;;;;;4949498;28;20438;-87
2022/07/11 04:31:34;;;;;;;1.70;1.70;;;;;;;;;;4949227;28;20444;-87
2022/07/11 04:34:00;;;;;;;3.00;2.80;;;;;;;;;;4952794;28;20442;-88
2022/07/11 04:36:26;;;;;;;1.57;1.53;;;;;;;;;;4949312;28;20544;-88
2022/07/11 04:38:52;;;;;;;2.03;1.80;;;;;;;;;;4953221;28;20808;-87
2022/07/11 04:41:18;;;;;;;1.67;1.57;;;;;;;;;;4953083;28;20418;-88
2022/07/11 04:43:44;;;;;;;2.03;1.80;;;;;;;;;;4946508;28;20500;-86
2022/07/11 04:46:10;;;;;;;4.60;1.60;;;;;;;;;;4953877;28;20493;-87
2022/07/11 04:48:37;;;;;;;4.80;1.87;;;;;;;;;;4951228;28;20529;-88
2022/07/11 04:51:04;;;;;;;1.30;1.30;;;;;;;;;;4947855;28;20541;-87
2022/07/11 04:53:30;;;;;;;1.77;1.47;;;;;;;;;;4948027;28;20605;-86
2022/07/11 04:55:56;;;;;;;1.73;1.73;;;;;;;;;;4952600;28;20548;-87
2022/07/11 04:58:22;;;;;;;1.67;1.67;;;;;;;;;;4949788;28;20450;-87
2022/07/11 05:00:47;;;;;;;1.70;1.60;;;;;;;;;;4959887;28;20470;-87
2022/07/11 05:03:14;;;;;;;1.33;1.33;;;;;;;;;;4959388;28;20448;-86
2022/07/11 05:05:40;;;;;;;1.73;1.73;;;;;;;;;;4954112;28;20805;-87
2022/07/11 05:08:07;;;;;;;1.70;1.70;;;;;;;;;;4958247;28;20446;-87
2022/07/11 05:10:34;;;;;;;1.37;1.37;;;;;;;;;;4961527;28;20466;-87
2022/07/11 05:13:00;;;;;;;1.60;1.50;;;;;;;;;;4954343;28;21042;-87
2022/07/11 05:15:26;;;;;;;1.60;1.60;;;;;;;;;;4971171;28;20737;-88
2022/07/11 05:17:52;;;;;;;1.53;1.53;;;;;;;;;;4964058;28;20861;-88
2022/07/11 05:20:18;;;;;;;1.30;1.30;;;;;;;;;;4956752;28;20560;-88
2022/07/11 05:22:44;;;;;;;1.57;1.57;;;;;;;;;;4967713;28;20475;-86
2022/07/11 05:25:10;;;;;;;1.20;1.20;;;;;;;;;;4953620;28;20538;-86
2022/07/11 05:27:36;;;;;;;1.53;1.47;;;;;;;;;;4968929;28;20584;-87
2022/07/11 05:30:02;;;;;;;1.10;1.10;;;;;;;;;;4971926;28;20405;-86
2022/07/11 05:32:28;;;;;;;1.33;1.10;;;;;;;;;;4969783;28;20539;-91
2022/07/11 05:34:56;;;;;;;6.63;2.80;;;;;;;;;;4969164;28;20589;-93
2022/07/11 05:37:22;;;;;;;1.60;1.60;;;;;;;;;;4983452;28;20858;-90
2022/07/11 05:39:50;;;;;;;1.10;1.10;;;;;;;;;;4976149;28;20502;-93
2022/07/11 05:42:16;;;;;;;1.43;1.30;;;;;;;;;;4978902;28;20497;-89
2022/07/11 05:44:42;;;;;;;1.80;0.90;;;;;;;;;;4962872;29;20410;-93
2022/07/11 05:47:08;;;;;;;0.67;0.60;;;;;;;;;;4976845;28;20445;-92
2022/07/11 05:49:34;;;;;;;0.90;0.90;;;;;;;;;;4986329;28;20503;-92
2022/07/11 05:52:01;;;;;;;0.97;0.80;;;;;;;;;;4973964;28;20453;-93
2022/07/11 05:54:28;;;;;;;0.80;0.80;;;;;;;;;;4952506;28;20441;-93
2022/07/11 05:56:54;;;;;;;1.40;0.83;;;;;;;;;;4973328;28;20422;-92
2022/07/11 05:59:20;;;;;;;0.90;0.90;;;;;;;;;;4977198;28;20437;-91
2022/07/11 06:01:46;;;;;;;1.33;1.07;;;;;;;;;;4965961;28;20599;-93
2022/07/11 06:04:12;;;;;;;0.97;0.60;;;;;;;;;;4945536;29;20443;-93
2022/07/11 06:06:39;;;;;;;0.80;0.80;;;;;;;;;;4983072;28;20433;-91
2022/07/11 06:09:05;;;;;;;0.80;0.80;;;;;;;;;;4964158;28;20450;-92
2022/07/11 06:11:31;;;;;;;0.90;0.90;;;;;;;;;;4965722;28;20418;-93
2022/07/11 06:13:57;;;;;;;0.80;0.80;;;;;;;;;;4955962;28;20521;-94
2022/07/11 06:16:23;;;;;;;0.60;0.60;;;;;;;;;;4967867;28;20525;-93
2022/07/11 06:18:50;;;;;;;1.13;1.00;;;;;;;;;;4965989;28;20445;-91
2022/07/11 06:21:16;;;;;;;1.10;1.10;;;;;;;;;;4983063;28;20453;-93
2022/07/11 06:23:42;;;;;;;1.70;1.60;;;;;;;;;;4969303;28;20812;-93
2022/07/11 06:26:15;;;;;;;1.10;1.10;;;;;;;;;;4971392;28;20494;-91
2022/07/11 06:28:41;;;;;;;2.30;2.10;;;;;;;;;;4943595;29;20434;-93
2022/07/11 06:31:07;;;;;;;1.80;1.80;;;;;;;;;;4965020;28;20455;-93
2022/07/11 06:33:34;;;;;;;2.50;2.50;;;;;;;;;;4961051;28;20439;-94
2022/07/11 06:36:01;;;;;;;1.87;1.87;;;;;;;;;;4961489;28;20459;-93
2022/07/11 06:38:28;;;;;;;1.40;1.40;;;;;;;;;;4965156;28;20463;-91
2022/07/11 06:40:54;;;;;;;1.67;1.67;;;;;;;;;;4984285;28;20418;-92
2022/07/11 06:43:20;;;;;;;2.00;2.00;;;;;;;;;;4623876;28;10000609;-92
2022/07/11 06:45:47;;;;;;;2.13;2.03;;;;;;;;;;4973874;28;21115;-91
2022/07/11 06:48:13;;;;;;;2.40;2.20;;;;;;;;;;4965032;28;20438;-92
2022/07/11 06:50:39;;;;;;;2.17;2.17;;;;;;;;;;4977660;28;20937;-91
2022/07/11 06:53:05;;;;;;;2.60;2.50;;;;;;;;;;4986015;28;20442;-90
2022/07/11 06:55:32;;;;;;;2.60;2.40;;;;;;;;;;4963309;28;20557;-92
2022/07/11 06:57:58;;;;;;;2.70;2.70;;;;;;;;;;4965101;28;20447;-91
2022/07/11 07:00:24;;;;;;;2.60;2.43;;;;;;;;;;4969986;28;20466;-94
2022/07/11 07:02:50;;;;;;;2.60;2.20;;;;;;;;;;4962985;28;20446;-86
2022/07/11 07:05:16;;;;;;;1.93;1.93;;;;;;;;;;4962234;28;20477;-88
2022/07/11 07:07:42;;;;;;;2.20;2.20;;;;;;;;;;4952372;28;20664;-88
2022/07/11 07:10:08;;;;;;;2.00;2.00;;;;;;;;;;4955205;28;20438;-88
2022/07/11 07:12:38;;;;;;;3.20;2.90;;;;;;;;;;4959224;28;20441;-88
2022/07/11 07:15:05;;;;;;;2.57;2.57;;;;;;;;;;4959338;28;20564;-88
2022/07/11 07:17:31;;;;;;;2.73;2.57;;;;;;;;;;4606283;28;10000162;-88
2022/07/11 07:19:57;;;;;;;2.10;2.00;;;;;;;;;;4946983;28;20206;-88
2022/07/11 07:22:26;;;;;;;1.57;1.57;;;;;;;;;;4945908;28;20525;-88
2022/07/11 07:24:52;;;;;;;2.80;2.60;;;;;;;;;;4949990;28;20426;-88
2022/07/11 07:27:18;;;;;;;2.47;2.23;;;;;;;;;;4947091;28;20453;-88
2022/07/11 07:29:44;;;;;;;2.20;2.10;;;;;;;;;;4950031;28;20956;-87
2022/07/11 07:32:10;;;;;;;2.23;2.03;;;;;;;;;;4944997;28;20818;-88
2022/07/11 07:34:35;;;;;;;2.03;1.90;;;;;;;;;;4951107;28;20427;-88
2022/07/11 07:37:03;;;;;;;2.10;1.93;;;;;;;;;;4950158;28;20960;-87
2022/07/11 07:39:29;;;;;;;2.00;1.80;;;;;;;;;;4962652;28;20462;-85
2022/07/11 07:41:55;;;;;;;1.50;1.50;;;;;;;;;;4943540;28;20434;-87
2022/07/11 07:44:21;;;;;;;1.57;1.47;;;;;;;;;;4955073;28;20433;-87
2022/07/11 07:46:47;;;;;;;4.17;1.30;;;;;;;;;;4946188;28;20439;-89
2022/07/11 07:49:13;;;;;;;3.87;1.37;;;;;;;;;;4939129;28;20464;-87
2022/07/11 07:51:39;;;;;;;1.30;1.30;;;;;;;;;;4954317;28;20839;-87
2022/07/11 07:54:05;;;;;;;1.43;1.33;;;;;;;;;;4938939;28;20485;-88
2022/07/11 07:56:31;;;;;;;1.87;1.03;;;;;;;;;;4969278;28;20860;-88
2022/07/11 07:58:57;;;;;;;0.90;0.90;;;;;;;;;;4940015;28;20464;-88
2022/07/11 08:01:35;;;;;;;1.10;1.10;;;;;;;;;;4957865;28;20549;-88
2022/07/11 08:04:05;;;;;;;0.70;0.70;;;;;;;;;;4937987;28;20444;-88
2022/07/11 08:06:31;;;;;;;0.70;0.70;;;;;;;;;;4956302;28;20422;-86
2022/07/11 08:08:58;;;;;;;1.10;0.70;;;;;;;;;;4946350;28;20442;-87
2022/07/11 08:11:24;;;;;;;1.87;1.77;;;;;;;;;;4958012;28;20719;-88
2022/07/11 08:14:10;;;;;;;2.10;2.00;;;;;;;;;;4952718;28;20442;-88
2022/07/11 08:16:37;;;;;;;1.40;1.10;;;;;;;;;;4941359;29;20529;-89
2022/07/11 08:19:04;;;;;;;0.90;0.90;;;;;;;;;;4950703;28;20481;-87
2022/07/11 08:21:30;;;;;;;2.13;1.93;;;;;;;;;;4959083;28;20450;-88
2022/07/11 08:23:56;;;;;;;7.40;0.90;;;;;;;;;;4959184;28;20448;-89
2022/07/11 08:26:22;;;;;;;0.83;0.83;;;;;;;;;;4962632;28;20657;-86
2022/07/11 08:28:48;;;;;;;1.17;1.10;;;;;;;;;;4943137;28;20442;-87
2022/07/11 08:31:14;;;;;;;0.60;0.60;;;;;;;;;;4965200;28;20430;-87
2022/07/11 08:33:40;;;;;;;2.83;1.80;;;;;;;;;;4955445;28;20449;-88
2022/07/11 08:36:06;;;;;;;0.70;0.70;;;;;;;;;;4960934;28;20553;-87
2022/07/11 08:38:32;;;;;;;0.50;0.50;;;;;;;;;;4950326;28;20446;-87
2022/07/11 08:40:58;;;;;;;1.37;1.27;;;;;;;;;;4960229;28;20454;-87
2022/07/11 08:43:29;;;;;;;3.13;3.00;;;;;;;;;;4956965;28;20442;-87
2022/07/11 08:45:55;;;;;;;2.70;2.70;;;;;;;;;;4956833;28;20958;-88
2022/07/11 08:48:21;;;;;;;4.00;4.00;;;;;;;;;;4951911;28;20441;-87
2022/07/11 08:50:48;;;;;;;6.00;5.70;;;;;;;;;;4958125;28;20844;-87
2022/07/11 08:53:14;;;;;;;5.27;5.20;;;;;;;;;;4961220;28;20508;-88
2022/07/11 08:55:40;;;;;;;3.80;3.80;;;;;;;;;;4263289;28;10000596;-88
2022/07/11 08:58:07;;;;;;;3.60;3.60;;;;;;;;;;4959233;28;20281;-87
2022/07/11 09:00:33;;;;;;;6.07;3.53;;;;;;;;;;4949300;28;20536;-88
2022/07/11 09:03:00;;;;;;;3.27;2.93;;;;;;;;;;4951213;28;20486;-88
2022/07/11 09:05:27;;;;;;;6.03;3.57;;;;;;;;;;4946290;28;20461;-88
2022/07/11 09:07:54;;;;;;;3.10;3.10;;;;;;;;;;4949973;28;20898;-88
2022/07/11 09:10:20;;;;;;;7.00;3.90;;;;;;;;;;4944764;28;20446;-88
2022/07/11 09:12:59;;;;;;;4.17;3.87;;;;;;;;;;4954382;28;20486;-89
2022/07/11 09:15:35;;;;;;;3.27;3.23;;;;;;;;;;4934509;29;20470;-88
2022/07/11 09:18:01;;;;;;;3.40;3.40;;;;;;;;;;4960557;28;20450;-87
2022/07/11 09:25:19;;;;;;;13.37;4.80;;;;;;;;;;4952821;28;20480;-87
2022/07/11 09:26:07;;;;;;;7.00;3.70;;;;;;;;;;4958819;28;20465;-87
2022/07/11 09:28:33;;;;;;;2.00;2.00;;;;;;;;;;4956104;28;20430;-87
2022/07/11 09:30:59;;;;;;;2.30;2.13;;;;;;;;;;4966366;28;20489;-87
2022/07/11 09:33:25;;;;;;;1.73;1.63;;;;;;;;;;4953661;28;20519;-88
2022/07/11 09:35:51;;;;;;;1.77;1.77;;;;;;;;;;4932180;28;20478;-87
2022/07/11 09:38:17;;;;;;;2.00;1.90;;;;;;;;;;4952501;28;20446;-88
2022/07/11 09:40:44;;;;;;;1.30;1.30;;;;;;;;;;4953134;28;20433;-88
2022/07/11 09:43:10;;;;;;;1.07;1.07;;;;;;;;;;4966320;28;20426;-88
2022/07/11 09:45:36;;;;;;;0.97;0.97;;;;;;;;;;4955059;28;20836;-89
2022/07/11 09:48:08;;;;;;;1.03;1.03;;;;;;;;;;4949127;28;20468;-88
2022/07/11 09:50:34;;;;;;;1.27;1.20;;;;;;;;;;4951586;29;20931;-88
2022/07/11 09:53:07;;;;;;;1.00;1.00;;;;;;;;;;4959206;28;20874;-87
2022/07/11 09:55:34;;;;;;;0.80;0.80;;;;;;;;;;4948138;28;20471;-89
2022/07/11 09:58:04;;;;;;;1.30;1.30;;;;;;;;;;4960506;28;20441;-89
2022/07/11 10:00:30;;;;;;;1.67;1.57;;;;;;;;;;4956622;28;20532;-87
2022/07/11 10:02:56;;;;;;;1.03;1.03;;;;;;;;;;4951410;28;20829;-89
2022/07/11 10:05:22;;;;;;;2.50;2.30;;;;;;;;;;4944236;28;20430;-88
2022/07/11 10:07:48;;;;;;;2.87;2.77;;;;;;;;;;4955126;28;20438;-89
2022/07/11 10:10:14;;;;;;;1.97;1.97;;;;;;;;;;4949234;29;20465;-87
2022/07/11 10:12:40;;;;;;;1.60;1.60;;;;;;;;;;4608292;28;10000404;-89
2022/07/11 10:15:09;;;;;;;1.00;1.00;;;;;;;;;;4948537;28;20207;-88
2022/07/11 10:17:55;;;;;;;1.30;1.30;;;;;;;;;;4945347;28;20446;-89
2022/07/11 10:20:40;;;;;;;0.80;0.80;;;;;;;;;;4935304;28;20457;-90
2022/07/11 10:23:12;;;;;;;1.30;1.20;;;;;;;;;;4953165;28;20432;-88
2022/07/11 10:26:02;;;;;;;1.43;1.33;;;;;;;;;;4950341;28;20433;-91
2022/07/11 10:28:54;;;;;;;1.03;1.03;;;;;;;;;;4958723;28;20457;-92
2022/07/11 10:31:26;;;;;;;0.63;0.63;;;;;;;;;;4962219;28;20873;-90
2022/07/11 10:34:05;;;;;;;4.70;1.20;;;;;;;;;;4962722;28;20465;-91
2022/07/11 10:36:47;;;;;;;0.83;0.60;;;;;;;;;;4949298;29;20486;-91
2022/07/11 10:40:08;;;;;;;;;;;;;;;;;;;;;
2022/07/11 10:42:01;;;;;;;1.20;1.00;;;;;;;;;;4945136;28;20435;-90
2022/07/11 10:44:28;;;;;;;1.27;1.20;;;;;;;;;;4968246;28;20430;-91
2022/07/11 10:46:57;;;;;;;1.70;1.70;;;;;;;;;;4953961;28;20431;-91
2022/07/11 10:49:35;;;;;;;3.30;3.23;;;;;;;;;;4946633;28;20443;-91
2022/07/11 10:52:08;;;;;;;4.53;4.43;;;;;;;;;;4944397;28;20431;-89
2022/07/11 10:54:44;;;;;;;4.83;4.83;;;;;;;;;;4957215;28;20442;-89
2022/07/11 10:57:31;;;;;;;6.70;6.50;;;;;;;;;;4935823;29;20530;-92
2022/07/11 11:00:00;;;;;;;6.50;6.20;;;;;;;;;;4969801;28;20935;-89
2022/07/11 11:02:28;;;;;;;8.40;7.90;;;;;;;;;;4956967;28;20512;-91
2022/07/11 11:04:59;;;;;;;8.07;7.70;;;;;;;;;;4963503;28;20440;-90
2022/07/11 11:07:36;;;;;;;7.17;6.97;;;;;;;;;;4952717;28;20411;-88
2022/07/11 11:10:05;;;;;;;7.33;7.10;;;;;;;;;;4966560;28;20456;-90
2022/07/11 11:12:51;;;;;;;6.83;6.63;;;;;;;;;;4941708;29;20426;-90
2022/07/11 11:15:33;;;;;;;6.60;6.40;;;;;;;;;;4959247;28;21015;-90
2022/07/11 11:18:25;;;;;;;5.13;4.90;;;;;;;;;;4944876;29;20505;-91
2022/07/11 11:21:00;;;;;;;3.70;3.70;;;;;;;;;;4952542;28;20449;-93
2022/07/11 11:23:29;;;;;;;4.20;4.10;;;;;;;;;;4970904;28;20531;-90
2022/07/11 11:25:55;;;;;;;2.97;2.87;;;;;;;;;;4968862;28;21034;-92
2022/07/11 11:28:21;;;;;;;2.50;2.50;;;;;;;;;;4964607;28;20509;-91
2022/07/11 11:30:54;;;;;;;2.67;2.47;;;;;;;;;;4972905;28;20977;-92
2022/07/11 11:33:22;;;;;;;1.80;1.80;;;;;;;;;;4975390;28;20460;-88
2022/07/11 11:36:06;;;;;;;1.60;1.50;;;;;;;;;;4966177;28;20484;-88
2022/07/11 11:38:51;;;;;;;1.60;1.60;;;;;;;;;;4948801;28;20431;-89
2022/07/11 11:41:24;;;;;;;2.00;1.90;;;;;;;;;;4944794;29;20509;-88
2022/07/11 11:43:51;;;;;;;2.83;1.97;;;;;;;;;;4956902;28;20446;-89
2022/07/11 11:46:17;;;;;;;1.70;1.70;;;;;;;;;;4957902;28;20435;-88
2022/07/11 11:48:46;;;;;;;1.90;1.80;;;;;;;;;;4964883;28;20505;-89
2022/07/11 11:51:14;;;;;;;1.20;1.20;;;;;;;;;;4954932;28;20439;-90
2022/07/11 11:53:41;;;;;;;1.00;1.00;;;;;;;;;;4958599;28;20517;-90
2022/07/11 11:56:13;;;;;;;1.40;1.40;;;;;;;;;;4956935;28;20469;-89
2022/07/11 11:58:39;;;;;;;1.20;1.20;;;;;;;;;;4970225;28;20524;-89
2022/07/11 12:01:05;;;;;;;1.67;1.67;;;;;;;;;;4946693;28;20811;-89
2022/07/11 12:03:51;;;;;;;2.20;2.20;;;;;;;;;;4950298;28;20422;-89
2022/07/11 12:06:17;;;;;;;3.53;3.30;;;;;;;;;;4929300;29;20461;-90
2022/07/11 12:08:43;;;;;;;3.23;3.13;;;;;;;;;;4970083;28;20433;-90
2022/07/11 12:11:14;;;;;;;4.00;3.17;;;;;;;;;;4956561;28;20452;-89
2022/07/11 12:13:40;;;;;;;3.47;3.47;;;;;;;;;;4972918;28;20430;-88
2022/07/11 12:19:02;;;;;;;3.45;3.25;;;;;;;;;;4939923;29;20427;-88
2022/07/11 12:21:29;;;;;;;3.67;3.40;;;;;;;;;;4954887;28;20214;-89
2022/07/11 12:23:56;;;;;;;2.97;2.90;;;;;;;;;;4959339;28;20957;-88
2022/07/11 12:26:22;;;;;;;3.43;3.43;;;;;;;;;;4953116;28;20450;-89
2022/07/11 12:29:09;;;;;;;4.00;4.00;;;;;;;;;;4962276;28;20497;-89
2022/07/11 12:31:41;;;;;;;3.33;3.23;;;;;;;;;;4949209;28;21004;-89
2022/07/11 12:34:07;;;;;;;2.30;2.10;;;;;;;;;;4948014;28;20467;-91
2022/07/11 12:36:33;;;;;;;2.40;2.30;;;;;;;;;;4944856;28;20482;-91
2022/07/11 12:38:59;;;;;;;1.70;1.70;;;;;;;;;;4970999;28;20552;-90
2022/07/11 12:41:26;;;;;;;1.83;1.83;;;;;;;;;;4946983;28;20443;-90
2022/07/11 12:46:50;;;;;;;1.50;1.50;;;;;;;;;;4941894;29;20500;-89
2022/07/11 12:49:17;;;;;;;1.00;1.00;;;;;;;;;;4947157;28;20438;-88
2022/07/11 12:51:44;;;;;;;1.00;1.00;;;;;;;;;;4938961;28;20430;-89
2022/07/11 12:54:14;;;;;;;1.10;1.10;;;;;;;;;;4945658;28;20500;-88
2022/07/11 12:56:41;;;;;;;1.10;1.10;;;;;;;;;;4947720;28;20508;-89
2022/07/11 12:59:19;;;;;;;1.40;1.30;;;;;;;;;;4955293;28;20487;-90
2022/07/11 13:11:00;;;;;;;1.20;1.20;;;;;;;;;;4982227;28;20440;-91
2022/07/11 13:13:28;;;;;;;1.10;1.10;;;;;;;;;;4989087;28;20429;-95
2022/07/11 13:16:05;;;;;;;1.47;1.47;;;;;;;;;;5002331;28;20491;-90
2022/07/11 13:18:32;;;;;;;1.10;1.10;;;;;;;;;;5002030;28;20498;-89
2022/07/11 13:21:04;;;;;;;0.97;0.97;;;;;;;;;;4977487;28;20440;-92
2022/07/11 13:26:31;;;;;;;1.27;1.27;;;;;;;;;;5259064;23;20499;-91
2022/07/11 13:28:58;;;;;;;2.00;1.00;;;;;;;;;;4960445;28;20580;-88
2022/07/11 13:31:24;;;;;;;0.90;0.90;;;;;;;;;;4979887;28;20417;-92
2022/07/11 13:33:50;;;;;;;1.00;1.00;;;;;;;;;;4976118;28;20785;-88
2022/07/11 13:36:16;;;;;;;1.80;1.80;;;;;;;;;;4984929;28;20497;-93
2022/07/11 13:38:42;;;;;;;1.07;1.07;;;;;;;;;;4980001;28;20447;-93
2022/07/11 13:41:11;;;;;;;0.93;0.93;;;;;;;;;;4956107;29;20478;-93
2022/07/11 13:43:40;;;;;;;1.27;1.27;;;;;;;;;;4957203;29;20427;-93
2022/07/11 13:46:06;;;;;;;1.00;1.00;;;;;;;;;;4963629;29;20419;-89
2022/07/11 13:48:32;;;;;;;0.97;0.97;;;;;;;;;;4975162;28;20424;-91
2022/07/11 13:51:00;;;;;;;1.10;1.10;;;;;;;;;;4965318;29;20498;-92
2022/07/11 13:53:26;;;;;;;1.10;1.10;;;;;;;;;;4970127;28;20438;-89
2022/07/11 13:55:55;;;;;;;3.37;3.07;;;;;;;;;;4970667;28;20545;-92
2022/07/11 13:58:24;;;;;;;1.30;1.30;;;;;;;;;;4965055;29;20470;-92
2022/07/11 14:00:51;;;;;;;2.57;1.00;;;;;;;;;;4969091;28;20457;-87
2022/07/11 14:03:17;;;;;;;1.70;1.70;;;;;;;;;;4964157;28;20940;-90
2022/07/11 14:05:44;;;;;;;2.43;2.30;;;;;;;;;;4985092;28;20421;-89
2022/07/11 14:08:10;;;;;;;2.60;1.20;;;;;;;;;;4982453;28;20521;-91
2022/07/11 14:10:36;;;;;;;1.27;1.27;;;;;;;;;;4982075;28;20433;-92
2022/07/11 14:13:02;;;;;;;1.97;1.97;;;;;;;;;;4979667;28;20433;-91
2022/07/11 14:15:28;;;;;;;2.80;2.80;;;;;;;;;;4982077;28;20472;-91
2022/07/11 14:17:55;;;;;;;2.60;2.50;;;;;;;;;;4981216;28;20483;-94
2022/07/11 14:20:21;;;;;;;2.60;2.53;;;;;;;;;;4965895;28;20446;-88
2022/07/11 14:22:47;;;;;;;2.70;2.70;;;;;;;;;;4981495;28;20461;-93
2022/07/11 14:25:13;;;;;;;3.20;3.10;;;;;;;;;;4964176;28;20448;-92
2022/07/11 14:27:39;;;;;;;3.90;3.80;;;;;;;;;;4982248;28;20420;-87
2022/07/11 14:30:07;;;;;;;2.93;2.90;;;;;;;;;;4961383;28;20505;-92
2022/07/11 14:32:33;;;;;;;3.60;3.50;;;;;;;;;;4982169;28;20425;-88
2022/07/11 14:35:05;;;;;;;3.50;3.43;;;;;;;;;;4963188;28;20530;-89
2022/07/11 14:37:31;;;;;;;2.90;2.70;;;;;;;;;;5004750;28;20433;-89
2022/07/11 14:39:57;;;;;;;1.93;1.83;;;;;;;;;;4976827;28;20947;-92
2022/07/11 14:42:23;;;;;;;1.83;1.77;;;;;;;;;;4984938;28;20446;-93
2022/07/11 14:44:49;;;;;;;1.77;1.77;;;;;;;;;;4969282;28;20430;-91
2022/07/11 14:47:15;;;;;;;1.90;1.90;;;;;;;;;;4986962;28;20459;-91
2022/07/11 14:49:41;;;;;;;1.70;1.70;;;;;;;;;;4985006;28;20433;-90
2022/07/11 14:52:09;;;;;;;1.30;1.20;;;;;;;;;;4981777;28;20541;-92
2022/07/11 14:54:35;;;;;;;4.47;1.70;;;;;;;;;;4982716;28;20457;-90
2022/07/11 14:57:01;;;;;;;1.33;1.33;;;;;;;;;;4982603;28;20456;-91
2022/07/11 14:59:27;;;;;;;1.70;1.47;;;;;;;;;;4982515;28;20422;-92
2022/07/11 15:01:53;;;;;;;1.30;1.30;;;;;;;;;;4984101;28;20425;-93
2022/07/11 15:04:19;;;;;;;1.30;1.30;;;;;;;;;;4970543;28;20458;-92
2022/07/11 15:14:52;;;;;;;1.80;1.20;;;;;;;;;;5062430;23;20603;-86
2022/07/11 15:17:18;;;;;;;0.90;0.90;;;;;;;;;;5006165;28;20453;-92